Pagrindinis puslapis
METAR-TAF:

METAR-TAF

Oro uostai :

Kimble County Airport

Junction, Teksasas, Jungtinės Amerikos Valstijos

platuma: 30-30-39N, ilguma: 099-45-59W, Aukštis: 527 m

Dabartinis oras

Ataskaita buvo paskelbta 1 valandą ir 8 minutes, ne 14:51 UTC
Ramus vėjas
Temperatūra 24°C
Drėgmė 65%
Slėgis 1020 hPa
Matomumas: 8.0 km
Giedras dangus
migla

METAR: KJCT 031451Z AUTO 00000KT 5SM HZ CLR 24/17 A3012 RMK AO2 SLP163 T02440172 51011

Laikas: 10:59 (15:59 UTC)

Prognozė

Ataskaita buvo paskelbta 4 valandos ir 14 minutes, ne 11:45 UTC
Prognozė galioja nuo 03 metu 12 UTC su 04 metu 12 UTC
Vėjas 5 kt nuo kintamojo kryptimis
Matomumas: 10 km
Mažai debesys ne aukštis 7000 ft
Išsisklaidę debesys ne aukštis 15000 ft
Laikinai
nuo 03 metu 12 UTC su 03 metu 15 UTC
Matomumas: 8.0 km
Su prošvaistėmis ne aukštis 7000 ft
rūkana

TAF: KJCT 031145Z 0312/0412 VRB05KT P6SM FEW070 SCT150 TEMPO 0312/0315 5SM BR BKN070

Orai ataskaitas ir orų prognozės (METAR, TAF).

turimą stotys yra geltonos ir raudonos taškus žemėlapyje.

Perkelti pele per norėdami pamatyti stoties vardą.

Tada spustelėkite, norėdami matyti oro stebėjimo ir prognozės.

Norėdami pakeisti žemėlapį: spustelėkite ant žalios mygtukų su juodo kryžiaus žemyn,; žalią mygtuką su brūkšneliu, jei norite nutolinti; arba žalių rodyklių gretimoms žemėlapius.


METAR-TAF: